Time;durP1;ratioP1;P1;durP2;ratioP2;P2;SDS_P1;SDS_P2;PMS_P1;PMS_P2;Temp;Humidity;BMP_temperature;BMP_pressure;BME280_temperature;BME280_humidity;BME280_pressure;Samples;Min_cycle;Max_cycle;Signal;HPM_P1;HPM_P2
2021/04/06 00:02:22;;;;;;;3.97;0.70;;;;;;;-1.67;63.31;96928.00;10072899;29;20041;-75
2021/04/06 00:07:43;;;;;;;3.35;0.50;;;;;;;-1.65;63.45;96935.66;10060012;29;20417;-76
2021/04/06 00:13:03;;;;;;;4.55;0.70;;;;;;;-1.69;64.17;96944.22;10072628;29;20057;-75
2021/04/06 00:18:23;;;;;;;2.92;0.70;;;;;;;-1.75;63.70;96946.34;10085281;29;20056;-75
2021/04/06 00:23:43;;;;;;;2.58;0.43;;;;;;;-1.78;64.38;96931.72;10072340;29;20116;-75
2021/04/06 00:29:04;;;;;;;2.60;0.50;;;;;;;-1.81;64.68;96948.47;10057328;29;20065;-75
2021/04/06 00:34:24;;;;;;;1.85;0.35;;;;;;;-1.92;64.68;96943.25;10071927;29;20045;-75
2021/04/06 00:39:44;;;;;;;1.83;0.32;;;;;;;-2.04;64.42;96943.47;10056650;29;20148;-76
2021/04/06 00:45:24;;;;;;;3.85;0.50;;;;;;;-2.06;64.60;96951.47;10058596;29;20493;-75
2021/04/06 00:51:10;;;;;;;2.47;0.60;;;;;;;-2.13;64.58;96960.31;10084284;29;20049;-75
2021/04/06 00:56:34;;;;;;;5.10;0.50;;;;;;;-2.16;65.61;96957.91;10084649;29;20045;-76
2021/04/06 01:02:00;;;;;;;3.40;0.50;;;;;;;-2.17;65.00;96968.09;10058358;29;20408;-75
2021/04/06 01:07:20;;;;;;;4.00;0.40;;;;;;;-2.28;64.89;96984.00;10070417;29;20041;-75
2021/04/06 01:12:40;;;;;;;1.23;0.30;;;;;;;-2.36;65.14;96983.88;10083467;29;20076;-75
2021/04/06 01:18:00;;;;;;;1.67;0.30;;;;;;;-2.38;65.08;96991.88;10057746;29;20052;-75
2021/04/06 01:23:19;;;;;;;3.38;0.40;;;;;;;-2.38;64.98;96980.94;10083378;29;20396;-75
2021/04/06 01:28:39;;;;;;;2.42;0.40;;;;;;;-2.43;65.18;96984.50;10057853;29;20041;-77
2021/04/06 01:34:00;;;;;;;1.52;0.40;;;;;;;-2.46;65.02;96980.09;10070454;29;20420;-76
2021/04/06 01:39:24;;;;;;;4.45;0.60;;;;;;;-2.52;65.38;96987.66;10070362;29;20045;-76
2021/04/06 01:44:45;;;;;;;2.13;0.25;;;;;;;-2.57;64.97;96988.50;10070380;29;20489;-76
2021/04/06 01:50:06;;;;;;;1.00;0.40;;;;;;;-2.57;64.99;96989.25;10057475;29;20056;-76
2021/04/06 01:55:34;;;;;;;1.52;0.40;;;;;;;-2.55;65.15;96994.19;10070035;29;20742;-75
2021/04/06 02:06:25;;;;;;;3.03;0.30;;;;;;;-2.60;65.18;96982.84;10071425;29;20434;-75
2021/04/06 02:11:46;;;;;;;2.50;0.43;;;;;;;-2.60;65.14;96993.78;10070086;29;20068;-76
2021/04/06 02:17:06;;;;;;;1.13;0.50;;;;;;;-2.63;64.97;96983.88;10069292;29;20187;-75
2021/04/06 02:22:25;;;;;;;3.20;0.40;;;;;;;-2.64;65.16;96990.59;10063700;29;20049;-75
2021/04/06 02:27:45;;;;;;;2.60;0.40;;;;;;;-2.66;65.04;96984.94;10063629;29;20053;-76
2021/04/06 02:33:05;;;;;;;2.10;0.40;;;;;;;-2.64;65.14;96987.88;10076168;29;20096;-75
2021/04/06 02:38:25;;;;;;;9.10;0.40;;;;;;;-2.65;65.38;96983.66;10075979;29;20049;-75
2021/04/06 02:43:47;;;;;;;3.38;0.40;;;;;;;-2.70;65.66;96984.50;10062937;29;20056;-75
2021/04/06 02:49:07;;;;;;;2.50;0.55;;;;;;;-2.74;65.22;96967.69;10061061;29;20045;-76
2021/04/06 02:54:27;;;;;;;2.97;0.30;;;;;;;-2.73;65.78;96968.41;10075357;29;20477;-75
2021/04/06 02:59:47;;;;;;;1.95;0.30;;;;;;;-2.78;65.84;96956.34;10075412;29;20056;-75
2021/04/06 03:05:08;;;;;;;3.78;0.50;;;;;;;-2.84;66.04;96957.69;10074987;29;20056;-76
2021/04/06 03:10:29;;;;;;;2.03;0.47;;;;;;;-2.91;65.99;96948.13;10074894;29;20048;-77
2021/04/06 03:15:49;;;;;;;1.88;0.47;;;;;;;-2.92;66.59;96949.38;10074640;29;20466;-77
2021/04/06 03:21:11;;;;;;;2.25;0.30;;;;;;;-2.97;66.04;96944.75;10062348;29;20053;-76
2021/04/06 03:26:31;;;;;;;2.50;0.40;;;;;;;-3.02;66.75;96934.66;10074315;29;20504;-75
2021/04/06 03:31:50;;;;;;;1.67;0.40;;;;;;;-3.10;67.71;96933.81;10074067;29;20045;-76
2021/04/06 03:37:10;;;;;;;2.55;0.50;;;;;;;-3.10;67.00;96931.06;10061105;29;20045;-77
2021/04/06 03:42:30;;;;;;;3.58;0.45;;;;;;;-3.11;67.40;96921.41;10086868;29;20081;-76
2021/04/06 03:47:58;;;;;;;1.70;0.40;;;;;;;-3.13;68.15;96926.66;10073754;29;20076;-75
2021/04/06 03:53:20;;;;;;;2.05;0.40;;;;;;;-3.14;67.19;96930.66;10060616;29;20041;-76
2021/04/06 03:58:46;;;;;;;2.50;0.47;;;;;;;-3.14;67.98;96930.66;10073581;29;20509;-75
2021/04/06 04:04:06;;;;;;;3.45;0.45;;;;;;;-3.13;68.35;96929.41;10074141;29;20052;-76
2021/04/06 04:09:25;;;;;;;2.83;0.47;;;;;;;-3.14;69.45;96925.19;10072680;29;20057;-75
2021/04/06 04:14:45;;;;;;;1.83;0.50;;;;;;;-3.14;68.34;96908.81;10059035;29;20057;-75
2021/04/06 04:20:12;;;;;;;2.50;0.52;;;;;;;-3.09;68.29;96916.88;10085045;29;20049;-75
2021/04/06 04:25:32;;;;;;;2.85;0.57;;;;;;;-3.04;68.13;96890.75;10067100;29;20098;-75
2021/04/06 04:30:53;;;;;;;4.20;0.68;;;;;;;-2.95;68.17;96899.28;10043807;29;20045;-75
2021/04/06 04:36:13;;;;;;;2.88;0.50;;;;;;;-2.85;67.55;96883.22;10050004;29;20033;-75
2021/04/06 04:41:33;;;;;;;2.33;0.80;;;;;;;-2.76;67.77;96874.59;10034663;29;20045;-76
2021/04/06 04:46:53;;;;;;;2.22;0.55;;;;;;;-2.65;67.33;96868.19;10049100;29;20097;-75
2021/04/06 04:52:13;;;;;;;2.97;1.08;;;;;;;-2.44;67.16;96865.53;10046053;29;20101;-75
2021/04/06 04:57:33;;;;;;;2.22;0.63;;;;;;;-2.13;66.04;96850.91;10032739;29;20105;-75
2021/04/06 05:02:53;;;;;;;3.20;0.68;;;;;;;-1.85;65.61;96849.56;10032797;29;20049;-75
2021/04/06 05:08:12;;;;;;;3.22;0.80;;;;;;;-1.56;64.90;96853.09;10045308;29;20054;-74
2021/04/06 05:13:32;;;;;;;3.10;0.80;;;;;;;-0.90;64.05;96845.19;10032334;29;20069;-75
2021/04/06 05:18:52;;;;;;;4.57;1.10;;;;;;;-0.18;62.34;96838.22;10032350;29;20050;-74
2021/04/06 05:24:12;;;;;;;2.25;0.88;;;;;;;0.46;59.43;96840.69;10067108;29;20060;-74
2021/04/06 05:29:32;;;;;;;2.50;1.15;;;;;;;0.84;58.10;96840.69;10059708;29;20049;-74
2021/04/06 05:34:52;;;;;;;3.40;0.93;;;;;;;0.69;58.85;96835.22;10044603;29;20041;-74
2021/04/06 05:40:12;;;;;;;3.50;1.10;;;;;;;1.46;58.15;96859.81;10044945;29;20046;-75
2021/04/06 05:45:32;;;;;;;5.95;1.60;;;;;;;3.16;55.63;96840.38;10031641;29;20494;-75
2021/04/06 05:50:53;;;;;;;3.38;0.90;;;;;;;6.96;56.98;96853.13;10057517;29;20105;-75
2021/04/06 05:56:13;;;;;;;2.13;0.80;;;;;;;11.47;46.56;96850.78;10050099;29;20078;-76
2021/04/06 06:01:41;;;;;;;2.97;0.95;;;;;;;8.72;41.15;96844.13;10064918;29;20086;-76
2021/04/06 06:07:01;;;;;;;2.95;1.10;;;;;;;6.17;45.68;96856.75;10051856;29;20097;-75
2021/04/06 06:12:21;;;;;;;3.17;0.90;;;;;;;4.02;47.30;96850.63;10062122;29;20056;-75
2021/04/06 06:17:41;;;;;;;2.60;1.20;;;;;;;2.69;49.00;96849.59;10061287;29;20049;-75
2021/04/06 06:23:23;;;;;;;4.07;1.40;;;;;;;2.13;50.49;96849.09;10061998;29;20097;-75
2021/04/06 06:29:12;;;;;;;3.10;1.23;;;;;;;1.84;51.51;96854.19;10049845;29;20045;-75
2021/04/06 06:34:35;;;;;;;3.00;0.90;;;;;;;1.91;51.24;96854.13;10026258;29;20049;-75
2021/04/06 06:40:06;;;;;;;4.60;1.00;;;;;;;1.78;51.77;96848.16;10050387;29;20054;-75
2021/04/06 06:45:29;;;;;;;3.55;0.75;;;;;;;1.26;53.80;96843.00;10038390;29;20064;-75
2021/04/06 06:50:49;;;;;;;3.72;1.27;;;;;;;1.25;54.00;96860.03;10038175;29;20045;-75
2021/04/06 06:56:11;;;;;;;3.22;1.00;;;;;;;1.56;52.49;96824.94;10036775;29;20054;-75
2021/04/06 07:01:33;;;;;;;2.17;1.00;;;;;;;1.96;53.17;96825.69;10036958;29;20046;-75
2021/04/06 07:06:58;;;;;;;5.60;1.20;;;;;;;4.60;54.32;96826.03;10023389;29;20057;-75
2021/04/06 07:12:19;;;;;;;3.65;1.30;;;;;;;8.64;47.62;96815.81;10049335;29;20067;-75
2021/04/06 07:17:39;;;;;;;5.10;1.50;;;;;;;5.90;44.91;96818.16;10023410;29;20049;-75
2021/04/06 07:23:03;;;;;;;4.95;1.08;;;;;;;3.95;47.94;96815.53;10023806;29;20045;-75
2021/04/06 07:28:23;;;;;;;;;;;;;;;3.80;49.50;96813.00;10065824;29;20428;-74
2021/04/06 07:33:45;;;;;;;5.07;1.92;;;;;;;3.71;49.43;96803.34;10073616;29;19984;-75
2021/04/06 07:39:11;;;;;;;5.70;2.35;;;;;;;3.35;49.32;96796.41;10074051;29;20116;-75
2021/04/06 07:44:35;;;;;;;2.75;1.25;;;;;;;2.74;51.26;96810.81;10086957;29;20109;-75
2021/04/06 07:49:54;;;;;;;4.85;1.65;;;;;;;3.52;50.07;96800.44;10074005;29;20096;-75
2021/04/06 07:55:14;;;;;;;3.30;1.38;;;;;;;4.98;48.61;96797.00;10058027;29;20053;-75
2021/04/06 08:00:50;;;;;;;2.53;1.00;;;;;;;4.21;47.47;96800.28;10073378;29;20056;-76
2021/04/06 08:06:25;;;;;;;1.92;1.05;;;;;;;3.10;49.92;96779.22;10073069;29;20044;-76
2021/04/06 08:12:11;;;;;;;3.03;1.10;;;;;;;3.70;49.95;96785.31;10073599;29;20049;-75
2021/04/06 08:17:31;;;;;;;1.70;1.10;;;;;;;8.02;46.87;96791.91;10059501;29;20041;-75
2021/04/06 08:23:15;;;;;;;2.70;0.90;;;;;;;14.92;32.11;96779.97;10098761;29;20057;-76
2021/04/06 08:28:37;;;;;;;3.08;0.70;;;;;;;14.00;33.92;96779.41;10072052;29;20048;-76
2021/04/06 08:34:26;;;;;;;2.90;1.15;;;;;;;11.20;35.01;96778.94;10085242;29;20061;-75
2021/04/06 08:39:46;;;;;;;2.05;1.00;;;;;;;10.66;36.76;96780.38;10071668;29;20059;-75
2021/04/06 08:45:07;;;;;;;2.60;1.05;;;;;;;17.04;33.05;96780.94;10071390;29;20097;-76
2021/04/06 08:50:34;;;;;;;3.28;0.88;;;;;;;21.30;27.21;96792.53;10058522;29;20049;-76
2021/04/06 08:55:54;;;;;;;2.17;0.95;;;;;;;18.49;24.71;96780.22;10059981;29;20046;-75
2021/04/06 09:01:14;;;;;;;1.70;0.70;;;;;;;16.55;25.05;96785.91;10066121;29;20041;-77
2021/04/06 09:06:34;;;;;;;1.90;0.80;;;;;;;13.18;28.02;96800.59;10060132;29;20049;-77
2021/04/06 09:11:55;;;;;;;1.48;0.77;;;;;;;10.92;31.44;96794.97;10059388;29;20113;-76
2021/04/06 09:17:15;;;;;;;3.03;0.63;;;;;;;9.27;31.78;96799.31;10029358;29;20562;-77
2021/04/06 09:22:36;;;;;;;1.25;0.50;;;;;;;8.88;34.38;96800.59;9994613;29;20053;-76
2021/04/06 09:28:03;;;;;;;1.73;0.90;;;;;;;8.83;34.37;96798.16;10007170;29;20046;-73
2021/04/06 09:33:23;;;;;;;1.33;0.70;;;;;;;7.03;36.21;96800.19;10021542;29;20046;-77
2021/04/06 09:38:43;;;;;;;3.53;0.75;;;;;;;5.80;37.91;96787.69;10025274;29;20494;-80
2021/04/06 09:44:05;;;;;;;2.72;0.80;;;;;;;4.75;39.49;96803.66;10050353;23;20063;-83
2021/04/06 09:49:52;;;;;;;1.40;0.50;;;;;;;4.02;41.32;96809.19;11317215;23;20035;31
2021/04/06 09:55:14;;;;;;;3.40;0.60;;;;;;;3.33;46.39;96812.78;10169320;23;20464;-79
2021/04/06 10:00:35;;;;;;;2.03;0.70;;;;;;;3.60;47.75;96798.34;10098132;29;20051;-77
2021/04/06 10:06:05;;;;;;;2.80;0.80;;;;;;;4.29;43.72;96801.63;10126658;29;20064;-81
2021/04/06 10:11:26;;;;;;;1.73;0.90;;;;;;;5.03;43.88;96788.44;10141859;29;20041;-79
2021/04/06 10:17:09;;;;;;;2.92;1.00;;;;;;;6.21;43.16;96790.53;10103588;29;20112;-78
2021/04/06 10:23:04;;;;;;;2.28;0.70;;;;;;;8.53;40.95;96800.59;10085315;29;20052;-81
2021/04/06 10:40:35;;;;;;;1.77;0.70;;;;;;;9.63;37.01;96811.78;10604287;23;20145;-80
2021/04/06 10:46:09;;;;;;;1.55;0.70;;;;;;;7.32;38.29;96808.31;10112510;29;20041;-83
2021/04/06 11:03:58;;;;;;;0.68;0.50;;;;;;;3.95;44.17;96830.06;10056160;29;20145;-80
2021/04/06 11:09:21;;;;;;;1.88;0.60;;;;;;;3.53;44.77;96826.75;10014014;29;20058;-79
2021/04/06 11:14:42;;;;;;;3.78;0.75;;;;;;;3.72;46.24;96816.56;10014622;29;20050;-81
2021/04/06 11:20:01;;;;;;;1.65;1.02;;;;;;;4.39;45.58;96828.56;10013194;29;20069;-80
2021/04/06 11:25:22;;;;;;;2.15;1.40;;;;;;;4.62;46.06;96842.75;10005700;29;20050;-80
2021/04/06 11:30:42;;;;;;;1.67;1.25;;;;;;;3.90;46.40;96827.59;10000376;29;20054;-80
2021/04/06 11:36:02;;;;;;;2.08;1.60;;;;;;;3.49;47.40;96835.44;10013466;29;20066;-80
2021/04/06 11:41:25;;;;;;;2.60;2.20;;;;;;;4.02;48.13;96831.28;10001622;29;20542;-78
2021/04/06 11:46:45;;;;;;;3.85;2.40;;;;;;;5.62;47.82;96833.47;10000190;29;20053;-80
2021/04/06 11:52:05;;;;;;;3.50;2.50;;;;;;;6.96;46.74;96819.81;9998757;29;20547;-80
2021/04/06 11:57:25;;;;;;;2.65;2.33;;;;;;;8.07;45.67;96829.03;10010977;29;20053;-80
2021/04/06 12:02:46;;;;;;;3.53;2.08;;;;;;;7.64;45.26;96834.69;10219010;23;20056;-80
2021/04/06 13:02:36;;;;;;;3.60;0.60;;;;;;;9.76;35.38;96774.91;12197493;23;20034;31
2021/04/06 13:28:18;;;;;;;1.60;0.30;;;;;;;9.44;33.30;96732.03;11128791;23;20079;-79
2021/04/06 13:33:47;;;;;;;1.23;0.30;;;;;;;9.27;33.54;96735.97;10842665;23;20052;-76
2021/04/06 14:02:34;;;;;;;2.40;0.43;;;;;;;9.39;31.43;96700.44;11738839;23;20039;-82
2021/04/06 14:08:11;;;;;;;1.40;0.28;;;;;;;9.12;31.49;96694.75;10721986;23;20061;-85
2021/04/06 14:13:41;;;;;;;2.38;0.40;;;;;;;9.45;30.77;96697.25;10804065;23;20151;-80
2021/04/06 14:19:00;;;;;;;2.60;0.40;;;;;;;10.14;30.26;96691.88;10142490;29;20047;-80
2021/04/06 14:24:20;;;;;;;1.55;0.30;;;;;;;10.49;28.75;96694.41;10155746;29;20052;-79
2021/04/06 14:29:41;;;;;;;1.33;0.45;;;;;;;10.57;29.28;96695.53;10155624;29;20057;-80
2021/04/06 14:35:00;;;;;;;2.17;0.30;;;;;;;9.88;29.21;96686.38;10155671;29;20052;-80
2021/04/06 14:40:20;;;;;;;1.60;0.70;;;;;;;9.62;29.64;96682.16;11195414;23;20051;-84
2021/04/06 14:52:20;;;;;;;3.30;0.30;;;;;;;9.24;29.27;96686.34;12033903;23;20031;31
2021/04/06 15:16:51;;;;;;;3.55;0.30;;;;;;;7.44;32.99;96692.50;9959271;27;20559;-80
2021/04/06 15:22:22;;;;;;;0.82;0.30;;;;;;;6.77;33.46;96704.16;10140763;29;20044;-80
2021/04/06 15:28:10;;;;;;;1.20;0.30;;;;;;;6.01;33.73;96706.75;10161751;29;20052;-80
2021/04/06 15:33:30;;;;;;;1.77;0.30;;;;;;;5.62;34.19;96689.50;10149625;29;20047;-84
2021/04/06 15:38:51;;;;;;;1.33;0.40;;;;;;;5.42;34.56;96700.63;10160818;29;20091;-83
2021/04/06 15:44:11;;;;;;;3.08;0.57;;;;;;;5.28;34.95;96696.84;10241213;23;20052;-85
2021/04/06 15:49:41;;;;;;;1.63;0.40;;;;;;;5.14;35.57;96691.03;10642871;23;736533;-85
2021/04/06 15:55:02;;;;;;;2.72;0.68;;;;;;;5.17;36.15;96695.41;10101309;29;20058;-86
2021/04/06 16:00:26;;;;;;;2.40;0.50;;;;;;;5.10;37.30;96709.38;10287001;23;20058;-80
2021/04/06 16:05:56;;;;;;;2.55;0.35;;;;;;;4.74;41.21;96713.75;10124211;29;20504;-81
2021/04/06 16:11:17;;;;;;;1.67;0.30;;;;;;;4.37;39.66;96706.84;10538985;23;20715;-85
2021/04/06 16:16:38;;;;;;;0.80;0.20;;;;;;;4.24;39.94;96708.69;10958134;23;20946;-85
2021/04/06 16:21:58;;;;;;;2.15;0.40;;;;;;;3.90;42.04;96714.38;10153190;29;20056;-81
2021/04/06 16:27:18;;;;;;;1.45;0.32;;;;;;;3.78;43.22;96708.66;10179184;29;20028;-83
2021/04/06 16:38:22;;;;;;;1.17;0.40;;;;;;;3.30;46.13;96711.88;10040448;29;20054;-80
2021/04/06 16:43:46;;;;;;;2.40;0.50;;;;;;;3.14;47.40;96710.59;10003111;29;20061;-78
2021/04/06 16:49:13;;;;;;;1.70;0.60;;;;;;;3.08;47.98;96716.34;10014924;29;20061;-81
2021/04/06 16:54:33;;;;;;;2.80;1.20;;;;;;;2.83;45.48;96726.75;10013524;29;20042;-79
2021/04/06 16:59:56;;;;;;;4.82;2.20;;;;;;;2.54;47.36;96729.25;10016222;29;20049;-82
2021/04/06 17:05:15;;;;;;;2.45;0.93;;;;;;;2.32;47.57;96721.91;10057689;29;20042;-80
2021/04/06 17:10:35;;;;;;;3.08;0.82;;;;;;;2.05;52.00;96730.03;10044164;29;20042;-79
2021/04/06 17:15:55;;;;;;;1.88;0.60;;;;;;;1.88;49.13;96734.16;10065448;29;20034;-81
2021/04/06 17:21:15;;;;;;;2.13;0.57;;;;;;;1.74;48.67;96724.72;10274293;24;20064;-87
2021/04/06 17:26:35;;;;;;;1.75;0.50;;;;;;;1.61;50.15;96724.97;10419709;23;20060;-79
2021/04/06 17:31:58;;;;;;;4.03;0.60;;;;;;;1.46;50.43;96733.31;10151440;29;20075;-79
2021/04/06 17:37:20;;;;;;;4.50;1.00;;;;;;;1.35;49.34;96735.19;10141880;29;20040;-77
2021/04/06 17:43:11;;;;;;;1.92;0.63;;;;;;;1.23;49.57;96739.63;10153365;29;20423;-79
2021/04/06 17:48:42;;;;;;;1.58;0.40;;;;;;;1.23;49.52;96736.88;10168415;29;20051;-80
2021/04/06 17:54:06;;;;;;;4.65;0.40;;;;;;;1.19;49.93;96744.06;10162315;29;20041;-79
2021/04/06 17:59:40;;;;;;;1.10;0.47;;;;;;;1.10;52.05;96748.84;10149001;29;20408;-80
2021/04/06 18:05:06;;;;;;;2.75;0.70;;;;;;;1.06;51.86;96743.00;10182581;29;20048;-82
2021/04/06 18:10:27;;;;;;;1.38;0.40;;;;;;;1.04;51.00;96755.81;10174792;29;20059;-89
2021/04/06 18:15:47;;;;;;;2.53;0.60;;;;;;;0.98;53.41;96758.06;10177352;29;20059;-80
2021/04/06 18:21:07;;;;;;;2.50;0.90;;;;;;;1.15;51.36;96771.91;10150910;29;20064;-86
2021/04/06 18:26:27;;;;;;;2.63;0.98;;;;;;;1.37;52.48;96782.13;10188593;29;20048;-85
2021/04/06 18:31:47;;;;;;;3.33;1.25;;;;;;;1.49;51.02;96778.94;10188654;29;20083;-89
2021/04/06 18:37:07;;;;;;;1.98;0.90;;;;;;;1.63;51.17;96799.41;10183159;29;20044;-87
2021/04/06 18:42:28;;;;;;;2.35;1.00;;;;;;;1.75;51.80;96805.97;10173556;29;20081;-88
2021/04/06 18:47:48;;;;;;;2.45;0.80;;;;;;;1.87;51.87;96803.53;10183370;29;20050;-80
2021/04/06 18:53:08;;;;;;;4.18;0.73;;;;;;;1.72;53.45;96804.31;10160321;29;20055;-87
2021/04/06 18:58:28;;;;;;;2.10;0.70;;;;;;;1.40;52.79;96799.50;10153616;29;20075;-82
2021/04/06 19:03:52;;;;;;;2.45;0.40;;;;;;;1.13;52.68;96799.97;10131774;29;20485;-79
2021/04/06 19:09:12;;;;;;;3.08;0.90;;;;;;;0.78;54.95;96812.69;10105366;29;20473;-80
2021/04/06 19:14:32;;;;;;;3.25;1.00;;;;;;;0.64;54.19;96805.19;10119733;29;20051;-80
2021/04/06 19:19:51;;;;;;;4.03;1.50;;;;;;;0.51;53.86;96811.59;10091140;29;20108;-80
2021/04/06 19:25:12;;;;;;;4.05;1.83;;;;;;;0.45;55.28;96813.78;10106059;29;20052;-79
2021/04/06 19:30:32;;;;;;;4.70;1.75;;;;;;;0.40;55.51;96812.69;10090973;29;20057;-84
2021/04/06 19:35:52;;;;;;;6.90;2.22;;;;;;;0.30;56.84;96800.06;10130510;29;20508;-84
2021/04/06 19:41:12;;;;;;;5.78;2.28;;;;;;;0.25;57.03;96796.94;10140587;29;20044;-80
2021/04/06 19:46:32;;;;;;;10.40;2.47;;;;;;;0.15;56.85;96798.03;10105640;29;20056;-82
2021/04/06 19:51:52;;;;;;;5.35;2.53;;;;;;;0.03;58.49;96796.91;10116395;29;20052;-81
2021/04/06 19:57:12;;;;;;;4.35;2.33;;;;;;;-0.15;57.79;96787.75;10115310;29;20468;-81
2021/04/06 20:02:32;;;;;;;3.55;1.88;;;;;;;-0.23;60.25;96792.47;10102727;29;20055;-80
2021/04/06 20:07:52;;;;;;;4.53;2.05;;;;;;;-0.25;59.19;96792.28;10089885;29;20052;-80
2021/04/06 20:13:24;;;;;;;6.00;2.13;;;;;;;-0.27;62.41;96805.81;10101575;29;20040;-79
2021/04/06 20:18:44;;;;;;;1.95;0.80;;;;;;;-0.30;60.28;96788.41;10116159;29;20040;-80
2021/04/06 20:24:06;;;;;;;1.98;0.80;;;;;;;-0.44;62.46;96795.34;10088950;29;20415;-79
2021/04/06 20:29:25;;;;;;;1.73;0.60;;;;;;;-0.56;64.88;96792.19;10092289;29;20052;-80
2021/04/06 20:34:45;;;;;;;1.88;0.70;;;;;;;-0.63;62.98;96779.91;10102251;29;20056;-80
2021/04/06 20:40:07;;;;;;;1.92;0.60;;;;;;;-0.64;61.64;96780.47;10101727;29;20056;-80
2021/04/06 20:45:27;;;;;;;2.08;0.70;;;;;;;-0.69;65.18;96773.84;10091689;29;20044;-80
2021/04/06 20:50:47;;;;;;;1.20;0.60;;;;;;;-0.72;62.94;96783.19;10121575;29;20051;-82
2021/04/06 20:56:08;;;;;;;1.23;0.60;;;;;;;-0.77;63.55;96773.13;10119495;29;20104;-81
2021/04/06 21:01:28;;;;;;;2.58;0.85;;;;;;;-0.78;62.70;96782.59;10103437;29;20040;-84
2021/04/06 21:06:47;;;;;;;1.52;0.60;;;;;;;-0.79;62.75;96766.69;10132918;29;20128;-85
2021/04/06 21:12:08;;;;;;;2.75;0.60;;;;;;;-0.80;62.55;96782.41;10100779;29;20048;-81
2021/04/06 21:17:27;;;;;;;2.03;0.77;;;;;;;-0.82;63.31;96773.25;10097768;29;20416;-80
2021/04/06 21:22:48;;;;;;;1.98;0.60;;;;;;;-0.88;65.63;96782.34;10099348;29;20041;-80
2021/04/06 21:28:12;;;;;;;1.85;0.60;;;;;;;-0.90;63.52;96778.69;10111966;29;20052;-79
2021/04/06 21:33:32;;;;;;;2.00;0.73;;;;;;;-0.95;63.78;96788.56;10110445;29;20040;-80
2021/04/06 21:38:52;;;;;;;2.70;0.80;;;;;;;-1.00;65.17;96786.69;10083410;29;20045;-80
2021/04/06 21:44:12;;;;;;;2.15;0.60;;;;;;;-1.08;65.38;96782.44;10108793;29;20051;-80
2021/04/06 21:49:31;;;;;;;1.38;0.60;;;;;;;-1.11;66.22;96786.25;10095735;29;20045;-79
2021/04/06 21:54:51;;;;;;;3.08;0.75;;;;;;;-1.14;66.18;96779.13;10095508;29;20049;-79
2021/04/06 22:00:20;;;;;;;1.75;0.80;;;;;;;-1.14;66.40;96781.88;10096388;29;20040;-79
2021/04/06 22:05:41;;;;;;;2.83;1.02;;;;;;;-1.14;66.24;96788.09;10097991;29;20055;-79
2021/04/06 22:11:00;;;;;;;3.20;0.93;;;;;;;-1.17;66.90;96794.63;10096482;29;20052;-79
2021/04/06 22:16:20;;;;;;;1.40;0.70;;;;;;;-1.19;66.97;96791.69;10096759;29;20052;-79
2021/04/06 22:21:40;;;;;;;3.47;1.00;;;;;;;-1.25;66.63;96785.66;10097145;29;20041;-80
2021/04/06 22:27:08;;;;;;;2.80;1.15;;;;;;;-1.26;67.44;96789.63;10096667;29;20065;-79
2021/04/06 22:32:30;;;;;;;2.75;1.08;;;;;;;-1.30;68.18;96795.47;10085121;29;20056;-80
2021/04/06 22:37:49;;;;;;;3.53;1.20;;;;;;;-1.33;68.11;96784.88;10114194;29;20040;-79
2021/04/06 22:43:09;;;;;;;3.80;1.10;;;;;;;-1.36;67.63;96794.13;10103154;29;20048;-79
2021/04/06 22:48:29;;;;;;;2.78;1.10;;;;;;;-1.37;67.52;96798.16;10103285;29;20052;-79
2021/04/06 22:53:49;;;;;;;3.63;0.98;;;;;;;-1.38;68.35;96791.94;10102955;29;20045;-80
2021/04/06 22:59:09;;;;;;;2.58;1.05;;;;;;;-1.35;67.68;96798.34;10102983;29;20055;-79
2021/04/06 23:04:29;;;;;;;2.22;1.45;;;;;;;-1.33;69.38;96798.56;10116197;29;20548;-79
2021/04/06 23:09:48;;;;;;;2.65;1.25;;;;;;;-1.25;67.42;96804.81;10102862;29;20465;-79
2021/04/06 23:15:12;;;;;;;3.80;1.23;;;;;;;-1.04;67.84;96797.28;10102622;29;20049;-79
2021/04/06 23:20:33;;;;;;;2.90;1.40;;;;;;;-0.75;66.75;96806.19;10104029;29;20044;-79
2021/04/06 23:25:52;;;;;;;3.13;1.50;;;;;;;-0.59;67.03;96813.19;10101782;29;20507;-79
2021/04/06 23:31:12;;;;;;;3.30;1.20;;;;;;;-0.54;66.86;96817.06;10115444;29;20048;-80
2021/04/06 23:36:32;;;;;;;3.38;1.60;;;;;;;-0.54;67.01;96811.56;10088704;29;20054;-79
2021/04/06 23:41:51;;;;;;;2.80;1.30;;;;;;;-0.53;67.23;96807.56;10115338;29;20096;-80
2021/04/06 23:47:11;;;;;;;3.25;1.58;;;;;;;-0.53;67.06;96815.03;10100866;29;20095;-80
2021/04/06 23:52:31;;;;;;;2.40;1.27;;;;;;;-0.55;66.28;96818.34;10101362;29;20048;-79
2021/04/06 23:57:51;;;;;;;3.78;1.20;;;;;;;-0.66;66.38;96815.91;10114030;29;20049;-80
